sensor_id;sensor_type;location;lat;lon;timestamp;temperature;humidity
11239;DHT22;5677;48.488;13.436;2023-03-04T00:01:59;13.40;43.00
11239;DHT22;5677;48.488;13.436;2023-03-04T00:04:25;13.40;43.00
11239;DHT22;5677;48.488;13.436;2023-03-04T00:06:52;13.40;43.00
11239;DHT22;5677;48.488;13.436;2023-03-04T00:09:20;13.30;43.10
11239;DHT22;5677;48.488;13.436;2023-03-04T00:11:47;13.40;43.00
11239;DHT22;5677;48.488;13.436;2023-03-04T00:14:14;13.40;43.10
11239;DHT22;5677;48.488;13.436;2023-03-04T00:16:40;13.40;43.10
11239;DHT22;5677;48.488;13.436;2023-03-04T00:19:08;13.30;43.10
11239;DHT22;5677;48.488;13.436;2023-03-04T00:21:35;13.40;43.10
11239;DHT22;5677;48.488;13.436;2023-03-04T00:24:03;13.30;43.10
11239;DHT22;5677;48.488;13.436;2023-03-04T00:26:32;13.40;43.10
11239;DHT22;5677;48.488;13.436;2023-03-04T00:28:59;13.40;43.10
11239;DHT22;5677;48.488;13.436;2023-03-04T00:31:26;13.30;43.80
11239;DHT22;5677;48.488;13.436;2023-03-04T00:33:52;13.30;43.10
11239;DHT22;5677;48.488;13.436;2023-03-04T00:36:19;13.30;43.10
11239;DHT22;5677;48.488;13.436;2023-03-04T00:38:46;13.30;43.10
11239;DHT22;5677;48.488;13.436;2023-03-04T00:41:12;13.30;43.10
11239;DHT22;5677;48.488;13.436;2023-03-04T00:43:40;13.30;43.10
11239;DHT22;5677;48.488;13.436;2023-03-04T00:46:07;13.30;43.20
11239;DHT22;5677;48.488;13.436;2023-03-04T00:48:34;13.30;43.10
11239;DHT22;5677;48.488;13.436;2023-03-04T00:51:01;13.30;43.20
11239;DHT22;5677;48.488;13.436;2023-03-04T00:53:27;13.30;43.20
11239;DHT22;5677;48.488;13.436;2023-03-04T00:55:54;13.30;43.20
11239;DHT22;5677;48.488;13.436;2023-03-04T00:58:21;13.30;43.10
11239;DHT22;5677;48.488;13.436;2023-03-04T01:00:49;13.30;43.20
11239;DHT22;5677;48.488;13.436;2023-03-04T01:03:16;13.30;43.20
11239;DHT22;5677;48.488;13.436;2023-03-04T01:05:42;13.30;43.20
11239;DHT22;5677;48.488;13.436;2023-03-04T01:08:09;13.30;43.20
11239;DHT22;5677;48.488;13.436;2023-03-04T01:10:36;13.30;43.20
11239;DHT22;5677;48.488;13.436;2023-03-04T01:13:02;13.30;43.20
11239;DHT22;5677;48.488;13.436;2023-03-04T01:15:29;13.30;43.20
11239;DHT22;5677;48.488;13.436;2023-03-04T01:17:57;13.30;43.20
11239;DHT22;5677;48.488;13.436;2023-03-04T01:20:24;13.30;43.30
11239;DHT22;5677;48.488;13.436;2023-03-04T01:22:51;13.30;43.30
11239;DHT22;5677;48.488;13.436;2023-03-04T01:25:17;13.30;43.20
11239;DHT22;5677;48.488;13.436;2023-03-04T01:27:44;13.30;43.30
11239;DHT22;5677;48.488;13.436;2023-03-04T01:30:11;13.30;43.30
11239;DHT22;5677;48.488;13.436;2023-03-04T01:32:38;13.20;43.20
11239;DHT22;5677;48.488;13.436;2023-03-04T01:35:07;13.20;43.20
11239;DHT22;5677;48.488;13.436;2023-03-04T01:37:34;13.30;43.30
11239;DHT22;5677;48.488;13.436;2023-03-04T01:40:01;13.30;43.40
11239;DHT22;5677;48.488;13.436;2023-03-04T01:42:31;13.20;43.20
11239;DHT22;5677;48.488;13.436;2023-03-04T01:44:59;13.20;43.20
11239;DHT22;5677;48.488;13.436;2023-03-04T01:47:28;13.20;43.20
11239;DHT22;5677;48.488;13.436;2023-03-04T01:49:56;13.20;43.20
11239;DHT22;5677;48.488;13.436;2023-03-04T01:52:26;13.20;43.50
11239;DHT22;5677;48.488;13.436;2023-03-04T01:54:53;13.20;43.20
11239;DHT22;5677;48.488;13.436;2023-03-04T01:57:22;13.20;43.20
11239;DHT22;5677;48.488;13.436;2023-03-04T02:02:54;13.20;43.30
11239;DHT22;5677;48.488;13.436;2023-03-04T02:05:21;13.20;43.30
11239;DHT22;5677;48.488;13.436;2023-03-04T02:07:51;13.20;43.30
11239;DHT22;5677;48.488;13.436;2023-03-04T02:10:18;13.20;43.30
11239;DHT22;5677;48.488;13.436;2023-03-04T02:12:45;13.20;43.30
11239;DHT22;5677;48.488;13.436;2023-03-04T02:15:12;13.20;43.40
11239;DHT22;5677;48.488;13.436;2023-03-04T02:17:39;13.20;43.40
11239;DHT22;5677;48.488;13.436;2023-03-04T02:20:15;13.20;43.40
11239;DHT22;5677;48.488;13.436;2023-03-04T02:22:51;13.20;43.40
11239;DHT22;5677;48.488;13.436;2023-03-04T02:25:23;13.20;43.40
11239;DHT22;5677;48.488;13.436;2023-03-04T02:27:53;13.20;43.40
11239;DHT22;5677;48.488;13.436;2023-03-04T02:30:22;13.20;43.30
11239;DHT22;5677;48.488;13.436;2023-03-04T02:32:50;13.20;43.40
11239;DHT22;5677;48.488;13.436;2023-03-04T02:35:17;13.20;43.40
11239;DHT22;5677;48.488;13.436;2023-03-04T02:37:45;13.20;43.40
11239;DHT22;5677;48.488;13.436;2023-03-04T02:40:14;13.20;43.40
11239;DHT22;5677;48.488;13.436;2023-03-04T02:42:43;13.20;43.40
11239;DHT22;5677;48.488;13.436;2023-03-04T02:45:37;13.20;43.40
11239;DHT22;5677;48.488;13.436;2023-03-04T02:48:05;13.20;43.40
11239;DHT22;5677;48.488;13.436;2023-03-04T02:50:35;13.20;43.40
11239;DHT22;5677;48.488;13.436;2023-03-04T02:53:02;13.20;43.40
11239;DHT22;5677;48.488;13.436;2023-03-04T02:55:29;13.20;43.40
11239;DHT22;5677;48.488;13.436;2023-03-04T02:57:56;13.20;43.70
11239;DHT22;5677;48.488;13.436;2023-03-04T03:00:23;13.20;43.50
11239;DHT22;5677;48.488;13.436;2023-03-04T03:02:51;13.20;43.40
11239;DHT22;5677;48.488;13.436;2023-03-04T03:05:18;13.10;43.50
11239;DHT22;5677;48.488;13.436;2023-03-04T03:07:45;13.20;43.50
11239;DHT22;5677;48.488;13.436;2023-03-04T03:10:12;13.10;43.50
11239;DHT22;5677;48.488;13.436;2023-03-04T03:12:39;13.20;43.50
11239;DHT22;5677;48.488;13.436;2023-03-04T03:15:07;13.10;43.50
11239;DHT22;5677;48.488;13.436;2023-03-04T03:17:34;13.10;43.50
11239;DHT22;5677;48.488;13.436;2023-03-04T03:20:02;13.10;43.60
11239;DHT22;5677;48.488;13.436;2023-03-04T03:22:29;13.10;43.50
11239;DHT22;5677;48.488;13.436;2023-03-04T03:24:55;13.10;43.60
11239;DHT22;5677;48.488;13.436;2023-03-04T03:27:22;13.10;43.60
11239;DHT22;5677;48.488;13.436;2023-03-04T03:29:49;13.10;43.60
11239;DHT22;5677;48.488;13.436;2023-03-04T03:32:16;13.10;43.60
11239;DHT22;5677;48.488;13.436;2023-03-04T03:34:43;13.10;43.60
11239;DHT22;5677;48.488;13.436;2023-03-04T03:37:11;13.10;43.60
11239;DHT22;5677;48.488;13.436;2023-03-04T03:39:37;13.10;43.50
11239;DHT22;5677;48.488;13.436;2023-03-04T03:42:04;13.10;43.80
11239;DHT22;5677;48.488;13.436;2023-03-04T03:44:31;13.10;43.90
11239;DHT22;5677;48.488;13.436;2023-03-04T03:46:58;13.10;43.70
11239;DHT22;5677;48.488;13.436;2023-03-04T03:49:24;13.10;43.70
11239;DHT22;5677;48.488;13.436;2023-03-04T03:51:51;13.10;43.70
11239;DHT22;5677;48.488;13.436;2023-03-04T03:54:19;13.10;43.70
11239;DHT22;5677;48.488;13.436;2023-03-04T03:56:46;13.10;43.80
11239;DHT22;5677;48.488;13.436;2023-03-04T03:59:13;13.10;43.80
11239;DHT22;5677;48.488;13.436;2023-03-04T04:01:40;13.10;43.70
11239;DHT22;5677;48.488;13.436;2023-03-04T04:04:07;13.10;43.80
11239;DHT22;5677;48.488;13.436;2023-03-04T04:06:34;13.10;43.80
11239;DHT22;5677;48.488;13.436;2023-03-04T04:09:01;13.10;43.80
11239;DHT22;5677;48.488;13.436;2023-03-04T04:11:29;13.10;43.90
11239;DHT22;5677;48.488;13.436;2023-03-04T04:13:56;13.10;43.90
11239;DHT22;5677;48.488;13.436;2023-03-04T04:16:22;13.10;43.90
11239;DHT22;5677;48.488;13.436;2023-03-04T04:18:49;13.10;43.90
11239;DHT22;5677;48.488;13.436;2023-03-04T04:21:16;13.10;43.90
11239;DHT22;5677;48.488;13.436;2023-03-04T04:23:42;13.10;43.90
11239;DHT22;5677;48.488;13.436;2023-03-04T04:26:09;13.10;44.00
11239;DHT22;5677;48.488;13.436;2023-03-04T04:28:37;13.00;43.80
11239;DHT22;5677;48.488;13.436;2023-03-04T04:31:06;13.00;44.30
11239;DHT22;5677;48.488;13.436;2023-03-04T04:33:33;13.00;43.80
11239;DHT22;5677;48.488;13.436;2023-03-04T04:36:00;13.00;43.90
11239;DHT22;5677;48.488;13.436;2023-03-04T04:38:28;13.10;44.00
11239;DHT22;5677;48.488;13.436;2023-03-04T04:40:56;13.00;43.90
11239;DHT22;5677;48.488;13.436;2023-03-04T04:43:23;13.00;43.90
11239;DHT22;5677;48.488;13.436;2023-03-04T04:45:51;13.00;43.90
11239;DHT22;5677;48.488;13.436;2023-03-04T04:48:18;13.10;44.00
11239;DHT22;5677;48.488;13.436;2023-03-04T04:50:45;13.00;43.90
11239;DHT22;5677;48.488;13.436;2023-03-04T04:53:12;13.00;44.00
11239;DHT22;5677;48.488;13.436;2023-03-04T04:55:39;13.10;44.10
11239;DHT22;5677;48.488;13.436;2023-03-04T04:58:06;13.00;43.90
11239;DHT22;5677;48.488;13.436;2023-03-04T05:00:33;13.00;44.00
11239;DHT22;5677;48.488;13.436;2023-03-04T05:03:01;13.00;44.00
11239;DHT22;5677;48.488;13.436;2023-03-04T05:05:27;13.00;44.00
11239;DHT22;5677;48.488;13.436;2023-03-04T05:07:54;13.00;43.90
11239;DHT22;5677;48.488;13.436;2023-03-04T05:10:21;13.00;44.00
11239;DHT22;5677;48.488;13.436;2023-03-04T05:12:48;13.00;44.00
11239;DHT22;5677;48.488;13.436;2023-03-04T05:15:15;13.00;43.90
11239;DHT22;5677;48.488;13.436;2023-03-04T05:17:42;13.00;43.90
11239;DHT22;5677;48.488;13.436;2023-03-04T05:20:11;13.00;44.00
11239;DHT22;5677;48.488;13.436;2023-03-04T05:22:37;13.00;44.00
11239;DHT22;5677;48.488;13.436;2023-03-04T05:25:05;13.00;44.00
11239;DHT22;5677;48.488;13.436;2023-03-04T05:27:32;13.00;44.00
11239;DHT22;5677;48.488;13.436;2023-03-04T05:29:59;13.00;44.00
11239;DHT22;5677;48.488;13.436;2023-03-04T05:32:26;13.00;44.00
11239;DHT22;5677;48.488;13.436;2023-03-04T05:34:53;13.00;44.00
11239;DHT22;5677;48.488;13.436;2023-03-04T05:37:21;13.00;44.10
11239;DHT22;5677;48.488;13.436;2023-03-04T05:39:48;13.00;44.00
11239;DHT22;5677;48.488;13.436;2023-03-04T05:42:15;13.00;44.00
11239;DHT22;5677;48.488;13.436;2023-03-04T05:44:41;13.00;44.00
11239;DHT22;5677;48.488;13.436;2023-03-04T05:47:08;13.00;44.10
11239;DHT22;5677;48.488;13.436;2023-03-04T05:49:35;13.00;38.10
11239;DHT22;5677;48.488;13.436;2023-03-04T05:52:01;12.90;43.80
11239;DHT22;5677;48.488;13.436;2023-03-04T05:54:30;12.90;44.80
11239;DHT22;5677;48.488;13.436;2023-03-04T05:56:56;12.90;44.90
11239;DHT22;5677;48.488;13.436;2023-03-04T05:59:23;12.90;44.80
11239;DHT22;5677;48.488;13.436;2023-03-04T06:01:50;13.00;44.90
11239;DHT22;5677;48.488;13.436;2023-03-04T06:04:17;13.00;45.00
11239;DHT22;5677;48.488;13.436;2023-03-04T06:06:44;13.00;44.90
11239;DHT22;5677;48.488;13.436;2023-03-04T06:09:11;13.00;45.00
11239;DHT22;5677;48.488;13.436;2023-03-04T06:11:40;13.00;45.00
11239;DHT22;5677;48.488;13.436;2023-03-04T06:14:08;13.00;45.00
11239;DHT22;5677;48.488;13.436;2023-03-04T06:16:34;13.00;45.00
11239;DHT22;5677;48.488;13.436;2023-03-04T06:19:01;13.00;45.00
11239;DHT22;5677;48.488;13.436;2023-03-04T06:21:28;13.00;44.90
11239;DHT22;5677;48.488;13.436;2023-03-04T06:23:54;13.00;45.00
11239;DHT22;5677;48.488;13.436;2023-03-04T06:26:21;13.00;44.90
11239;DHT22;5677;48.488;13.436;2023-03-04T06:28:49;13.00;45.00
11239;DHT22;5677;48.488;13.436;2023-03-04T06:31:16;13.00;44.90
11239;DHT22;5677;48.488;13.436;2023-03-04T06:33:43;13.00;45.00
11239;DHT22;5677;48.488;13.436;2023-03-04T06:36:10;13.00;45.00
11239;DHT22;5677;48.488;13.436;2023-03-04T06:38:37;13.00;45.00
11239;DHT22;5677;48.488;13.436;2023-03-04T06:41:08;13.10;45.20
11239;DHT22;5677;48.488;13.436;2023-03-04T06:43:35;13.10;45.20
11239;DHT22;5677;48.488;13.436;2023-03-04T06:46:04;13.00;42.00
11239;DHT22;5677;48.488;13.436;2023-03-04T06:48:31;13.00;44.80
11239;DHT22;5677;48.488;13.436;2023-03-04T06:50:57;13.00;43.80
11239;DHT22;5677;48.488;13.436;2023-03-04T06:53:24;12.90;44.10
11239;DHT22;5677;48.488;13.436;2023-03-04T06:55:51;12.90;44.40
11239;DHT22;5677;48.488;13.436;2023-03-04T06:58:18;12.90;44.20
11239;DHT22;5677;48.488;13.436;2023-03-04T07:00:44;12.90;44.30
11239;DHT22;5677;48.488;13.436;2023-03-04T07:03:12;12.90;44.10
11239;DHT22;5677;48.488;13.436;2023-03-04T07:05:39;12.90;44.20
11239;DHT22;5677;48.488;13.436;2023-03-04T07:08:06;12.90;44.00
11239;DHT22;5677;48.488;13.436;2023-03-04T07:10:33;12.90;43.90
11239;DHT22;5677;48.488;13.436;2023-03-04T07:12:59;12.90;43.80
11239;DHT22;5677;48.488;13.436;2023-03-04T07:15:26;12.90;43.80
11239;DHT22;5677;48.488;13.436;2023-03-04T07:17:53;12.90;43.70
11239;DHT22;5677;48.488;13.436;2023-03-04T07:20:21;12.90;43.90
11239;DHT22;5677;48.488;13.436;2023-03-04T07:22:48;13.00;44.00
11239;DHT22;5677;48.488;13.436;2023-03-04T07:25:15;12.90;44.20
11239;DHT22;5677;48.488;13.436;2023-03-04T07:27:42;12.90;44.20
11239;DHT22;5677;48.488;13.436;2023-03-04T07:30:10;12.90;44.10
11239;DHT22;5677;48.488;13.436;2023-03-04T07:32:37;12.90;44.10
11239;DHT22;5677;48.488;13.436;2023-03-04T07:35:04;13.00;44.00
11239;DHT22;5677;48.488;13.436;2023-03-04T07:37:33;13.00;44.10
11239;DHT22;5677;48.488;13.436;2023-03-04T07:39:59;13.00;44.00
11239;DHT22;5677;48.488;13.436;2023-03-04T07:42:26;13.00;40.90
11239;DHT22;5677;48.488;13.436;2023-03-04T07:44:53;12.90;42.30
11239;DHT22;5677;48.488;13.436;2023-03-04T07:47:20;12.90;43.70
11239;DHT22;5677;48.488;13.436;2023-03-04T07:49:47;12.90;43.70
11239;DHT22;5677;48.488;13.436;2023-03-04T07:52:14;12.90;42.90
11239;DHT22;5677;48.488;13.436;2023-03-04T07:54:42;12.90;43.60
11239;DHT22;5677;48.488;13.436;2023-03-04T07:57:08;12.90;43.50
11239;DHT22;5677;48.488;13.436;2023-03-04T07:59:35;13.00;43.60
11239;DHT22;5677;48.488;13.436;2023-03-04T08:02:02;13.00;43.60
11239;DHT22;5677;48.488;13.436;2023-03-04T08:04:29;13.00;43.50
11239;DHT22;5677;48.488;13.436;2023-03-04T08:06:55;13.00;43.40
11239;DHT22;5677;48.488;13.436;2023-03-04T08:09:22;13.00;43.40
11239;DHT22;5677;48.488;13.436;2023-03-04T08:11:50;13.00;43.40
11239;DHT22;5677;48.488;13.436;2023-03-04T08:14:17;13.00;43.30
11239;DHT22;5677;48.488;13.436;2023-03-04T08:16:44;13.00;43.30
11239;DHT22;5677;48.488;13.436;2023-03-04T08:19:12;13.00;43.30
11239;DHT22;5677;48.488;13.436;2023-03-04T08:21:39;13.10;43.50
11239;DHT22;5677;48.488;13.436;2023-03-04T08:24:05;13.10;43.50
11239;DHT22;5677;48.488;13.436;2023-03-04T08:26:35;13.10;43.40
11239;DHT22;5677;48.488;13.436;2023-03-04T08:29:08;13.10;43.40
11239;DHT22;5677;48.488;13.436;2023-03-04T08:31:36;13.10;43.20
11239;DHT22;5677;48.488;13.436;2023-03-04T08:34:04;13.20;43.30
11239;DHT22;5677;48.488;13.436;2023-03-04T08:36:32;13.10;42.70
11239;DHT22;5677;48.488;13.436;2023-03-04T08:38:59;13.10;43.40
11239;DHT22;5677;48.488;13.436;2023-03-04T08:41:26;13.10;43.50
11239;DHT22;5677;48.488;13.436;2023-03-04T08:43:53;13.20;43.20
11239;DHT22;5677;48.488;13.436;2023-03-04T08:46:21;13.20;43.10
11239;DHT22;5677;48.488;13.436;2023-03-04T08:48:48;13.20;42.90
11239;DHT22;5677;48.488;13.436;2023-03-04T08:51:15;13.30;42.80
11239;DHT22;5677;48.488;13.436;2023-03-04T08:53:43;13.30;42.60
11239;DHT22;5677;48.488;13.436;2023-03-04T08:56:11;13.40;42.50
11239;DHT22;5677;48.488;13.436;2023-03-04T08:58:38;13.50;42.30
11239;DHT22;5677;48.488;13.436;2023-03-04T09:01:07;13.60;42.10
11239;DHT22;5677;48.488;13.436;2023-03-04T09:03:36;13.60;41.90
11239;DHT22;5677;48.488;13.436;2023-03-04T09:06:03;13.70;41.80
11239;DHT22;5677;48.488;13.436;2023-03-04T09:08:32;13.80;41.60
11239;DHT22;5677;48.488;13.436;2023-03-04T09:10:58;13.90;41.50
11239;DHT22;5677;48.488;13.436;2023-03-04T09:13:28;13.90;41.40
11239;DHT22;5677;48.488;13.436;2023-03-04T09:15:56;14.00;41.20
11239;DHT22;5677;48.488;13.436;2023-03-04T09:18:24;14.00;41.10
11239;DHT22;5677;48.488;13.436;2023-03-04T09:20:52;14.00;41.00
11239;DHT22;5677;48.488;13.436;2023-03-04T09:23:19;14.00;40.90
11239;DHT22;5677;48.488;13.436;2023-03-04T09:25:47;14.10;40.90
11239;DHT22;5677;48.488;13.436;2023-03-04T09:28:15;14.10;40.60
11239;DHT22;5677;48.488;13.436;2023-03-04T09:30:42;14.10;38.20
11239;DHT22;5677;48.488;13.436;2023-03-04T09:33:09;14.00;36.80
11239;DHT22;5677;48.488;13.436;2023-03-04T09:35:36;14.00;38.90
11239;DHT22;5677;48.488;13.436;2023-03-04T09:38:04;14.00;38.60
11239;DHT22;5677;48.488;13.436;2023-03-04T09:40:38;13.90;40.40
11239;DHT22;5677;48.488;13.436;2023-03-04T09:43:10;13.90;41.50
11239;DHT22;5677;48.488;13.436;2023-03-04T09:45:40;13.90;37.70
11239;DHT22;5677;48.488;13.436;2023-03-04T09:48:09;13.90;39.40
11239;DHT22;5677;48.488;13.436;2023-03-04T09:50:42;13.80;35.00
11239;DHT22;5677;48.488;13.436;2023-03-04T09:53:18;13.70;37.50
11239;DHT22;5677;48.488;13.436;2023-03-04T09:55:49;13.70;40.30
11239;DHT22;5677;48.488;13.436;2023-03-04T09:58:27;13.70;41.60
11239;DHT22;5677;48.488;13.436;2023-03-04T10:01:00;13.80;42.20
11239;DHT22;5677;48.488;13.436;2023-03-04T10:03:34;13.80;41.80
11239;DHT22;5677;48.488;13.436;2023-03-04T10:06:09;13.80;42.30
11239;DHT22;5677;48.488;13.436;2023-03-04T10:08:41;13.90;42.50
11239;DHT22;5677;48.488;13.436;2023-03-04T10:11:14;13.90;42.40
11239;DHT22;5677;48.488;13.436;2023-03-04T10:13:49;13.90;42.50
11239;DHT22;5677;48.488;13.436;2023-03-04T10:16:19;13.90;42.40
11239;DHT22;5677;48.488;13.436;2023-03-04T10:18:51;14.00;42.20
11239;DHT22;5677;48.488;13.436;2023-03-04T10:21:22;14.00;41.20
11239;DHT22;5677;48.488;13.436;2023-03-04T10:23:53;14.00;41.30
11239;DHT22;5677;48.488;13.436;2023-03-04T10:26:20;14.00;41.10
11239;DHT22;5677;48.488;13.436;2023-03-04T10:28:49;13.90;40.90
11239;DHT22;5677;48.488;13.436;2023-03-04T10:31:20;13.90;40.20
11239;DHT22;5677;48.488;13.436;2023-03-04T10:33:48;13.90;40.00
11239;DHT22;5677;48.488;13.436;2023-03-04T10:36:35;13.90;40.40
11239;DHT22;5677;48.488;13.436;2023-03-04T10:39:08;13.90;39.70
11239;DHT22;5677;48.488;13.436;2023-03-04T10:41:36;13.90;39.80
11239;DHT22;5677;48.488;13.436;2023-03-04T10:44:14;13.90;39.50
11239;DHT22;5677;48.488;13.436;2023-03-04T10:46:44;13.90;39.60
11239;DHT22;5677;48.488;13.436;2023-03-04T10:49:14;13.90;39.20
11239;DHT22;5677;48.488;13.436;2023-03-04T10:51:43;13.90;39.20
11239;DHT22;5677;48.488;13.436;2023-03-04T10:54:21;13.90;39.20
11239;DHT22;5677;48.488;13.436;2023-03-04T10:56:55;13.80;39.10
11239;DHT22;5677;48.488;13.436;2023-03-04T10:59:30;13.80;38.80
11239;DHT22;5677;48.488;13.436;2023-03-04T11:01:57;13.80;38.90
11239;DHT22;5677;48.488;13.436;2023-03-04T11:04:26;13.80;38.90
11239;DHT22;5677;48.488;13.436;2023-03-04T11:06:53;13.80;38.80
11239;DHT22;5677;48.488;13.436;2023-03-04T11:09:24;13.80;38.90
11239;DHT22;5677;48.488;13.436;2023-03-04T11:11:51;13.80;38.70
11239;DHT22;5677;48.488;13.436;2023-03-04T11:14:22;13.80;38.70
11239;DHT22;5677;48.488;13.436;2023-03-04T11:16:55;13.80;38.70
11239;DHT22;5677;48.488;13.436;2023-03-04T11:19:25;13.80;38.70
11239;DHT22;5677;48.488;13.436;2023-03-04T11:21:54;13.70;38.60
11239;DHT22;5677;48.488;13.436;2023-03-04T11:24:25;13.80;38.60
11239;DHT22;5677;48.488;13.436;2023-03-04T11:26:57;13.80;38.60
11239;DHT22;5677;48.488;13.436;2023-03-04T11:29:28;13.70;36.50
11239;DHT22;5677;48.488;13.436;2023-03-04T11:32:01;13.70;38.00
11239;DHT22;5677;48.488;13.436;2023-03-04T11:34:35;13.70;40.30
11239;DHT22;5677;48.488;13.436;2023-03-04T11:37:06;13.70;42.30
11239;DHT22;5677;48.488;13.436;2023-03-04T11:39:37;13.80;43.10
11239;DHT22;5677;48.488;13.436;2023-03-04T11:42:21;13.80;43.80
11239;DHT22;5677;48.488;13.436;2023-03-04T11:44:49;13.80;44.40
11239;DHT22;5677;48.488;13.436;2023-03-04T11:47:26;13.90;44.40
11239;DHT22;5677;48.488;13.436;2023-03-04T11:50:13;13.90;44.30
11239;DHT22;5677;48.488;13.436;2023-03-04T11:53:03;14.00;44.60
11239;DHT22;5677;48.488;13.436;2023-03-04T11:55:42;14.10;45.50
11239;DHT22;5677;48.488;13.436;2023-03-04T11:58:31;14.10;45.80
11239;DHT22;5677;48.488;13.436;2023-03-04T12:01:07;14.10;46.30
11239;DHT22;5677;48.488;13.436;2023-03-04T12:04:03;14.10;45.80
11239;DHT22;5677;48.488;13.436;2023-03-04T12:06:40;14.10;45.70
11239;DHT22;5677;48.488;13.436;2023-03-04T12:12:24;14.20;48.10
11239;DHT22;5677;48.488;13.436;2023-03-04T12:14:59;14.20;48.90
11239;DHT22;5677;48.488;13.436;2023-03-04T12:17:36;14.20;49.70
11239;DHT22;5677;48.488;13.436;2023-03-04T12:20:24;14.20;50.40
11239;DHT22;5677;48.488;13.436;2023-03-04T12:22:58;14.20;50.70
11239;DHT22;5677;48.488;13.436;2023-03-04T12:25:41;14.30;51.30
11239;DHT22;5677;48.488;13.436;2023-03-04T12:28:30;14.30;51.50
11239;DHT22;5677;48.488;13.436;2023-03-04T12:31:31;14.30;50.60
11239;DHT22;5677;48.488;13.436;2023-03-04T12:40:25;14.20;47.80
11239;DHT22;5677;48.488;13.436;2023-03-04T12:43:06;14.20;47.20
11239;DHT22;5677;48.488;13.436;2023-03-04T12:45:43;14.20;46.80
11239;DHT22;5677;48.488;13.436;2023-03-04T12:48:20;14.20;46.50
11239;DHT22;5677;48.488;13.436;2023-03-04T12:51:01;14.20;45.70
11239;DHT22;5677;48.488;13.436;2023-03-04T12:53:34;14.20;46.20
11239;DHT22;5677;48.488;13.436;2023-03-04T12:56:04;14.20;46.10
11239;DHT22;5677;48.488;13.436;2023-03-04T12:58:32;14.20;46.00
11239;DHT22;5677;48.488;13.436;2023-03-04T13:01:08;14.20;46.10
11239;DHT22;5677;48.488;13.436;2023-03-04T13:03:45;14.20;45.90
11239;DHT22;5677;48.488;13.436;2023-03-04T13:06:35;14.20;45.80
11239;DHT22;5677;48.488;13.436;2023-03-04T13:09:10;14.20;45.70
11239;DHT22;5677;48.488;13.436;2023-03-04T13:11:50;14.20;45.70
11239;DHT22;5677;48.488;13.436;2023-03-04T13:14:28;14.20;45.60
11239;DHT22;5677;48.488;13.436;2023-03-04T13:16:58;14.20;45.50
11239;DHT22;5677;48.488;13.436;2023-03-04T13:19:44;14.20;45.30
11239;DHT22;5677;48.488;13.436;2023-03-04T13:22:34;14.20;44.10
11239;DHT22;5677;48.488;13.436;2023-03-04T13:25:30;13.90;35.70
11239;DHT22;5677;48.488;13.436;2023-03-04T13:28:17;13.80;36.50
11239;DHT22;5677;48.488;13.436;2023-03-04T13:31:16;13.80;38.00
11239;DHT22;5677;48.488;13.436;2023-03-04T13:33:50;13.70;39.20
11239;DHT22;5677;48.488;13.436;2023-03-04T13:36:52;13.70;39.70
11239;DHT22;5677;48.488;13.436;2023-03-04T13:39:44;13.80;40.30
11239;DHT22;5677;48.488;13.436;2023-03-04T13:42:44;13.80;38.30
11239;DHT22;5677;48.488;13.436;2023-03-04T13:45:32;13.60;35.60
11239;DHT22;5677;48.488;13.436;2023-03-04T13:47:59;13.60;35.20
11239;DHT22;5677;48.488;13.436;2023-03-04T13:50:33;13.60;37.80
11239;DHT22;5677;48.488;13.436;2023-03-04T13:53:29;13.60;38.70
11239;DHT22;5677;48.488;13.436;2023-03-04T13:56:21;13.60;39.00
11239;DHT22;5677;48.488;13.436;2023-03-04T13:58:51;13.60;39.30
11239;DHT22;5677;48.488;13.436;2023-03-04T14:01:25;13.60;39.40
11239;DHT22;5677;48.488;13.436;2023-03-04T14:03:53;13.60;39.50
11239;DHT22;5677;48.488;13.436;2023-03-04T14:06:23;13.70;39.70
11239;DHT22;5677;48.488;13.436;2023-03-04T14:08:51;13.70;39.80
11239;DHT22;5677;48.488;13.436;2023-03-04T14:11:25;13.70;39.90
11239;DHT22;5677;48.488;13.436;2023-03-04T14:13:53;13.70;40.00
11239;DHT22;5677;48.488;13.436;2023-03-04T14:16:25;13.80;40.00
11239;DHT22;5677;48.488;13.436;2023-03-04T14:19:00;13.80;40.10
11239;DHT22;5677;48.488;13.436;2023-03-04T14:21:29;13.70;40.10
11239;DHT22;5677;48.488;13.436;2023-03-04T14:24:03;13.70;40.20
11239;DHT22;5677;48.488;13.436;2023-03-04T14:26:30;13.80;40.20
11239;DHT22;5677;48.488;13.436;2023-03-04T14:28:58;13.80;40.20
11239;DHT22;5677;48.488;13.436;2023-03-04T14:31:29;13.80;40.30
11239;DHT22;5677;48.488;13.436;2023-03-04T14:33:57;13.80;40.30
11239;DHT22;5677;48.488;13.436;2023-03-04T14:36:30;13.80;40.30
11239;DHT22;5677;48.488;13.436;2023-03-04T14:39:00;13.80;40.40
11239;DHT22;5677;48.488;13.436;2023-03-04T14:41:30;13.80;40.40
11239;DHT22;5677;48.488;13.436;2023-03-04T14:44:02;13.80;40.40
11239;DHT22;5677;48.488;13.436;2023-03-04T14:46:31;13.80;40.50
11239;DHT22;5677;48.488;13.436;2023-03-04T14:49:00;13.80;40.50
11239;DHT22;5677;48.488;13.436;2023-03-04T14:51:35;13.80;40.50
11239;DHT22;5677;48.488;13.436;2023-03-04T14:54:03;13.70;40.50
11239;DHT22;5677;48.488;13.436;2023-03-04T14:56:34;13.80;40.60
11239;DHT22;5677;48.488;13.436;2023-03-04T14:59:01;13.70;40.60
11239;DHT22;5677;48.488;13.436;2023-03-04T15:01:30;13.70;40.70
11239;DHT22;5677;48.488;13.436;2023-03-04T15:04:00;13.70;40.70
11239;DHT22;5677;48.488;13.436;2023-03-04T15:06:29;13.70;40.70
11239;DHT22;5677;48.488;13.436;2023-03-04T15:09:00;13.70;40.90
11239;DHT22;5677;48.488;13.436;2023-03-04T15:11:30;13.70;40.90
11239;DHT22;5677;48.488;13.436;2023-03-04T15:13:58;13.70;40.80
11239;DHT22;5677;48.488;13.436;2023-03-04T15:16:27;13.70;40.90
11239;DHT22;5677;48.488;13.436;2023-03-04T15:19:00;13.70;40.90
11239;DHT22;5677;48.488;13.436;2023-03-04T15:21:31;13.60;40.80
11239;DHT22;5677;48.488;13.436;2023-03-04T15:24:00;13.70;41.00
11239;DHT22;5677;48.488;13.436;2023-03-04T15:26:28;13.60;40.90
11239;DHT22;5677;48.488;13.436;2023-03-04T15:28:55;13.60;40.90
11239;DHT22;5677;48.488;13.436;2023-03-04T15:31:23;13.70;41.00
11239;DHT22;5677;48.488;13.436;2023-03-04T15:33:51;13.60;41.00
11239;DHT22;5677;48.488;13.436;2023-03-04T15:36:20;13.70;41.10
11239;DHT22;5677;48.488;13.436;2023-03-04T15:38:48;13.60;41.00
11239;DHT22;5677;48.488;13.436;2023-03-04T15:41:21;13.60;41.00
11239;DHT22;5677;48.488;13.436;2023-03-04T15:43:48;13.60;41.00
11239;DHT22;5677;48.488;13.436;2023-03-04T15:46:15;13.60;41.10
11239;DHT22;5677;48.488;13.436;2023-03-04T15:48:42;13.60;41.10
11239;DHT22;5677;48.488;13.436;2023-03-04T15:51:12;13.60;41.10
11239;DHT22;5677;48.488;13.436;2023-03-04T15:53:42;13.60;41.10
11239;DHT22;5677;48.488;13.436;2023-03-04T15:56:13;13.50;41.10
11239;DHT22;5677;48.488;13.436;2023-03-04T15:58:41;13.50;41.10
11239;DHT22;5677;48.488;13.436;2023-03-04T16:01:13;13.60;41.20